sensor_id;sensor_type;location;lat;lon;timestamp;P1;durP1;ratioP1;P2;durP2;ratioP2
15651;SDS011;7926;43.576;1.458;2022-08-19T00:02:14;0.40;;;0.40;;
15651;SDS011;7926;43.576;1.458;2022-08-19T00:04:41;0.40;;;0.40;;
15651;SDS011;7926;43.576;1.458;2022-08-19T00:07:11;0.47;;;0.47;;
15651;SDS011;7926;43.576;1.458;2022-08-19T00:09:38;0.40;;;0.40;;
15651;SDS011;7926;43.576;1.458;2022-08-19T00:12:06;0.40;;;0.40;;
15651;SDS011;7926;43.576;1.458;2022-08-19T00:14:33;0.57;;;0.57;;
15651;SDS011;7926;43.576;1.458;2022-08-19T00:17:01;0.40;;;0.40;;
15651;SDS011;7926;43.576;1.458;2022-08-19T00:19:30;0.40;;;0.40;;
15651;SDS011;7926;43.576;1.458;2022-08-19T00:21:57;0.43;;;0.43;;
15651;SDS011;7926;43.576;1.458;2022-08-19T00:24:25;0.40;;;0.40;;
15651;SDS011;7926;43.576;1.458;2022-08-19T00:26:54;0.50;;;0.50;;
15651;SDS011;7926;43.576;1.458;2022-08-19T00:29:22;0.40;;;0.40;;
15651;SDS011;7926;43.576;1.458;2022-08-19T00:31:50;0.50;;;0.50;;
15651;SDS011;7926;43.576;1.458;2022-08-19T00:34:21;0.50;;;0.50;;
15651;SDS011;7926;43.576;1.458;2022-08-19T00:36:51;0.50;;;0.50;;
15651;SDS011;7926;43.576;1.458;2022-08-19T00:39:18;0.47;;;0.47;;
15651;SDS011;7926;43.576;1.458;2022-08-19T00:41:46;0.47;;;0.47;;
15651;SDS011;7926;43.576;1.458;2022-08-19T00:44:14;0.40;;;0.40;;
15651;SDS011;7926;43.576;1.458;2022-08-19T00:46:45;0.50;;;0.50;;
15651;SDS011;7926;43.576;1.458;2022-08-19T00:49:14;0.40;;;0.40;;
15651;SDS011;7926;43.576;1.458;2022-08-19T00:51:41;0.40;;;0.40;;
15651;SDS011;7926;43.576;1.458;2022-08-19T00:54:11;0.43;;;0.43;;
15651;SDS011;7926;43.576;1.458;2022-08-19T00:56:38;0.50;;;0.50;;
15651;SDS011;7926;43.576;1.458;2022-08-19T00:59:06;0.50;;;0.50;;
15651;SDS011;7926;43.576;1.458;2022-08-19T01:01:34;0.40;;;0.40;;
15651;SDS011;7926;43.576;1.458;2022-08-19T01:04:02;0.50;;;0.50;;
15651;SDS011;7926;43.576;1.458;2022-08-19T01:06:29;0.40;;;0.40;;
15651;SDS011;7926;43.576;1.458;2022-08-19T01:08:58;0.43;;;0.43;;
15651;SDS011;7926;43.576;1.458;2022-08-19T01:11:27;0.43;;;0.43;;
15651;SDS011;7926;43.576;1.458;2022-08-19T01:13:55;0.40;;;0.40;;
15651;SDS011;7926;43.576;1.458;2022-08-19T01:16:23;0.40;;;0.40;;
15651;SDS011;7926;43.576;1.458;2022-08-19T01:18:52;0.40;;;0.40;;
15651;SDS011;7926;43.576;1.458;2022-08-19T01:21:20;0.40;;;0.40;;
15651;SDS011;7926;43.576;1.458;2022-08-19T01:23:50;0.40;;;0.40;;
15651;SDS011;7926;43.576;1.458;2022-08-19T01:26:19;0.40;;;0.40;;
15651;SDS011;7926;43.576;1.458;2022-08-19T01:28:47;0.40;;;0.40;;
15651;SDS011;7926;43.576;1.458;2022-08-19T01:31:16;0.40;;;0.40;;
15651;SDS011;7926;43.576;1.458;2022-08-19T01:33:43;0.40;;;0.40;;
15651;SDS011;7926;43.576;1.458;2022-08-19T01:36:13;0.40;;;0.40;;
15651;SDS011;7926;43.576;1.458;2022-08-19T01:38:41;0.40;;;0.40;;
15651;SDS011;7926;43.576;1.458;2022-08-19T01:41:10;0.40;;;0.40;;
15651;SDS011;7926;43.576;1.458;2022-08-19T01:43:37;0.50;;;0.50;;
15651;SDS011;7926;43.576;1.458;2022-08-19T01:46:05;0.40;;;0.40;;
15651;SDS011;7926;43.576;1.458;2022-08-19T01:48:33;0.40;;;0.40;;
15651;SDS011;7926;43.576;1.458;2022-08-19T01:51:00;0.40;;;0.40;;
15651;SDS011;7926;43.576;1.458;2022-08-19T01:53:28;0.40;;;0.40;;
15651;SDS011;7926;43.576;1.458;2022-08-19T01:55:55;0.40;;;0.40;;
15651;SDS011;7926;43.576;1.458;2022-08-19T01:58:25;0.40;;;0.40;;
15651;SDS011;7926;43.576;1.458;2022-08-19T02:00:55;0.40;;;0.40;;
15651;SDS011;7926;43.576;1.458;2022-08-19T02:03:22;0.30;;;0.30;;
15651;SDS011;7926;43.576;1.458;2022-08-19T02:05:53;0.40;;;0.40;;
15651;SDS011;7926;43.576;1.458;2022-08-19T02:08:21;0.30;;;0.30;;
15651;SDS011;7926;43.576;1.458;2022-08-19T02:10:48;0.40;;;0.40;;
15651;SDS011;7926;43.576;1.458;2022-08-19T02:13:16;0.40;;;0.40;;
15651;SDS011;7926;43.576;1.458;2022-08-19T02:15:45;0.50;;;0.50;;
15651;SDS011;7926;43.576;1.458;2022-08-19T02:18:15;0.40;;;0.40;;
15651;SDS011;7926;43.576;1.458;2022-08-19T02:20:46;0.40;;;0.40;;
15651;SDS011;7926;43.576;1.458;2022-08-19T02:23:14;0.40;;;0.40;;
15651;SDS011;7926;43.576;1.458;2022-08-19T02:25:45;0.37;;;0.37;;
15651;SDS011;7926;43.576;1.458;2022-08-19T02:28:13;0.40;;;0.40;;
15651;SDS011;7926;43.576;1.458;2022-08-19T02:30:40;0.40;;;0.40;;
15651;SDS011;7926;43.576;1.458;2022-08-19T02:33:10;0.40;;;0.40;;
15651;SDS011;7926;43.576;1.458;2022-08-19T02:35:40;0.40;;;0.40;;
15651;SDS011;7926;43.576;1.458;2022-08-19T02:38:07;0.40;;;0.40;;
15651;SDS011;7926;43.576;1.458;2022-08-19T02:40:54;0.40;;;0.40;;
15651;SDS011;7926;43.576;1.458;2022-08-19T02:43:22;0.40;;;0.40;;
15651;SDS011;7926;43.576;1.458;2022-08-19T02:45:49;0.40;;;0.40;;
15651;SDS011;7926;43.576;1.458;2022-08-19T02:48:19;0.30;;;0.30;;
15651;SDS011;7926;43.576;1.458;2022-08-19T02:50:47;0.40;;;0.40;;
15651;SDS011;7926;43.576;1.458;2022-08-19T02:53:17;0.30;;;0.30;;
15651;SDS011;7926;43.576;1.458;2022-08-19T02:55:47;0.33;;;0.33;;
15651;SDS011;7926;43.576;1.458;2022-08-19T02:58:16;0.40;;;0.40;;
15651;SDS011;7926;43.576;1.458;2022-08-19T03:00:45;0.40;;;0.40;;
15651;SDS011;7926;43.576;1.458;2022-08-19T03:03:13;0.40;;;0.40;;
15651;SDS011;7926;43.576;1.458;2022-08-19T03:05:42;0.30;;;0.30;;
15651;SDS011;7926;43.576;1.458;2022-08-19T03:08:09;0.40;;;0.40;;
15651;SDS011;7926;43.576;1.458;2022-08-19T03:10:41;0.40;;;0.40;;
15651;SDS011;7926;43.576;1.458;2022-08-19T03:13:11;0.40;;;0.40;;
15651;SDS011;7926;43.576;1.458;2022-08-19T03:15:40;0.40;;;0.40;;
15651;SDS011;7926;43.576;1.458;2022-08-19T03:18:08;0.40;;;0.40;;
15651;SDS011;7926;43.576;1.458;2022-08-19T03:20:39;0.40;;;0.40;;
15651;SDS011;7926;43.576;1.458;2022-08-19T03:23:08;0.30;;;0.30;;
15651;SDS011;7926;43.576;1.458;2022-08-19T03:25:36;0.30;;;0.30;;
15651;SDS011;7926;43.576;1.458;2022-08-19T03:28:03;0.33;;;0.33;;
15651;SDS011;7926;43.576;1.458;2022-08-19T03:30:31;0.37;;;0.37;;
15651;SDS011;7926;43.576;1.458;2022-08-19T03:32:58;0.40;;;0.40;;
15651;SDS011;7926;43.576;1.458;2022-08-19T03:35:25;0.40;;;0.40;;
15651;SDS011;7926;43.576;1.458;2022-08-19T03:37:53;0.40;;;0.40;;
15651;SDS011;7926;43.576;1.458;2022-08-19T03:40:22;0.40;;;0.40;;
15651;SDS011;7926;43.576;1.458;2022-08-19T03:42:50;0.40;;;0.40;;
15651;SDS011;7926;43.576;1.458;2022-08-19T03:45:17;0.40;;;0.40;;
15651;SDS011;7926;43.576;1.458;2022-08-19T03:47:45;0.40;;;0.40;;
15651;SDS011;7926;43.576;1.458;2022-08-19T03:50:12;0.40;;;0.40;;
15651;SDS011;7926;43.576;1.458;2022-08-19T03:52:39;0.40;;;0.40;;
15651;SDS011;7926;43.576;1.458;2022-08-19T03:55:07;0.30;;;0.30;;
15651;SDS011;7926;43.576;1.458;2022-08-19T03:57:36;0.40;;;0.40;;
15651;SDS011;7926;43.576;1.458;2022-08-19T04:00:04;0.37;;;0.37;;
15651;SDS011;7926;43.576;1.458;2022-08-19T04:02:32;0.40;;;0.40;;
15651;SDS011;7926;43.576;1.458;2022-08-19T04:05:00;0.40;;;0.40;;
15651;SDS011;7926;43.576;1.458;2022-08-19T04:07:27;0.40;;;0.40;;
15651;SDS011;7926;43.576;1.458;2022-08-19T04:09:55;0.40;;;0.40;;
15651;SDS011;7926;43.576;1.458;2022-08-19T04:12:22;0.30;;;0.30;;
15651;SDS011;7926;43.576;1.458;2022-08-19T04:14:51;0.40;;;0.40;;
15651;SDS011;7926;43.576;1.458;2022-08-19T04:17:18;0.40;;;0.40;;
15651;SDS011;7926;43.576;1.458;2022-08-19T04:19:46;0.40;;;0.40;;
15651;SDS011;7926;43.576;1.458;2022-08-19T04:22:13;0.30;;;0.30;;
15651;SDS011;7926;43.576;1.458;2022-08-19T04:24:41;0.40;;;0.40;;
15651;SDS011;7926;43.576;1.458;2022-08-19T04:27:08;0.40;;;0.40;;
15651;SDS011;7926;43.576;1.458;2022-08-19T04:29:35;0.40;;;0.40;;
15651;SDS011;7926;43.576;1.458;2022-08-19T04:32:06;0.40;;;0.40;;
15651;SDS011;7926;43.576;1.458;2022-08-19T04:34:34;0.40;;;0.40;;
15651;SDS011;7926;43.576;1.458;2022-08-19T04:37:01;0.40;;;0.40;;
15651;SDS011;7926;43.576;1.458;2022-08-19T04:39:38;0.40;;;0.40;;
15651;SDS011;7926;43.576;1.458;2022-08-19T04:42:23;0.30;;;0.30;;
15651;SDS011;7926;43.576;1.458;2022-08-19T04:45:06;0.30;;;0.30;;
15651;SDS011;7926;43.576;1.458;2022-08-19T04:47:36;0.40;;;0.40;;
15651;SDS011;7926;43.576;1.458;2022-08-19T04:50:04;0.30;;;0.30;;
15651;SDS011;7926;43.576;1.458;2022-08-19T04:52:32;0.30;;;0.30;;
15651;SDS011;7926;43.576;1.458;2022-08-19T04:54:59;0.40;;;0.40;;
15651;SDS011;7926;43.576;1.458;2022-08-19T04:57:26;0.30;;;0.30;;
15651;SDS011;7926;43.576;1.458;2022-08-19T04:59:54;0.30;;;0.30;;
15651;SDS011;7926;43.576;1.458;2022-08-19T05:02:21;0.30;;;0.30;;
15651;SDS011;7926;43.576;1.458;2022-08-19T05:04:55;0.30;;;0.30;;
15651;SDS011;7926;43.576;1.458;2022-08-19T05:07:25;0.30;;;0.30;;
15651;SDS011;7926;43.576;1.458;2022-08-19T05:09:53;0.40;;;0.40;;
15651;SDS011;7926;43.576;1.458;2022-08-19T05:12:20;0.30;;;0.30;;
15651;SDS011;7926;43.576;1.458;2022-08-19T05:14:47;0.30;;;0.30;;
15651;SDS011;7926;43.576;1.458;2022-08-19T05:17:15;0.30;;;0.30;;
15651;SDS011;7926;43.576;1.458;2022-08-19T05:19:42;0.40;;;0.40;;
15651;SDS011;7926;43.576;1.458;2022-08-19T05:22:28;0.30;;;0.30;;
15651;SDS011;7926;43.576;1.458;2022-08-19T05:24:59;0.30;;;0.30;;
15651;SDS011;7926;43.576;1.458;2022-08-19T05:27:26;0.30;;;0.30;;
15651;SDS011;7926;43.576;1.458;2022-08-19T05:29:54;0.30;;;0.30;;
15651;SDS011;7926;43.576;1.458;2022-08-19T05:32:21;0.30;;;0.30;;
15651;SDS011;7926;43.576;1.458;2022-08-19T05:34:49;0.30;;;0.30;;
15651;SDS011;7926;43.576;1.458;2022-08-19T05:37:17;0.30;;;0.30;;
15651;SDS011;7926;43.576;1.458;2022-08-19T05:39:45;0.30;;;0.30;;
15651;SDS011;7926;43.576;1.458;2022-08-19T05:42:14;0.20;;;0.20;;
15651;SDS011;7926;43.576;1.458;2022-08-19T05:44:45;0.30;;;0.30;;
15651;SDS011;7926;43.576;1.458;2022-08-19T05:47:14;0.30;;;0.30;;
15651;SDS011;7926;43.576;1.458;2022-08-19T05:49:42;0.30;;;0.30;;
15651;SDS011;7926;43.576;1.458;2022-08-19T05:52:09;0.30;;;0.30;;
15651;SDS011;7926;43.576;1.458;2022-08-19T05:54:38;0.30;;;0.30;;
15651;SDS011;7926;43.576;1.458;2022-08-19T05:57:09;0.30;;;0.30;;
15651;SDS011;7926;43.576;1.458;2022-08-19T05:59:36;0.33;;;0.33;;
15651;SDS011;7926;43.576;1.458;2022-08-19T06:02:05;0.30;;;0.30;;
15651;SDS011;7926;43.576;1.458;2022-08-19T06:04:33;0.30;;;0.30;;
15651;SDS011;7926;43.576;1.458;2022-08-19T06:07:00;0.30;;;0.30;;
15651;SDS011;7926;43.576;1.458;2022-08-19T06:09:28;0.30;;;0.30;;
15651;SDS011;7926;43.576;1.458;2022-08-19T06:11:56;0.40;;;0.40;;
15651;SDS011;7926;43.576;1.458;2022-08-19T06:14:27;0.40;;;0.40;;
15651;SDS011;7926;43.576;1.458;2022-08-19T06:16:55;0.40;;;0.40;;
15651;SDS011;7926;43.576;1.458;2022-08-19T06:19:23;0.40;;;0.40;;
15651;SDS011;7926;43.576;1.458;2022-08-19T06:21:51;0.30;;;0.30;;
15651;SDS011;7926;43.576;1.458;2022-08-19T06:24:20;0.40;;;0.40;;
15651;SDS011;7926;43.576;1.458;2022-08-19T06:26:49;0.40;;;0.40;;
15651;SDS011;7926;43.576;1.458;2022-08-19T06:29:18;0.40;;;0.40;;
15651;SDS011;7926;43.576;1.458;2022-08-19T06:31:49;0.40;;;0.40;;
15651;SDS011;7926;43.576;1.458;2022-08-19T06:34:17;0.30;;;0.30;;
15651;SDS011;7926;43.576;1.458;2022-08-19T06:36:46;0.40;;;0.40;;
15651;SDS011;7926;43.576;1.458;2022-08-19T06:39:15;0.27;;;0.27;;
15651;SDS011;7926;43.576;1.458;2022-08-19T06:41:43;0.30;;;0.30;;
15651;SDS011;7926;43.576;1.458;2022-08-19T06:44:11;0.30;;;0.30;;
15651;SDS011;7926;43.576;1.458;2022-08-19T06:46:38;0.30;;;0.30;;
15651;SDS011;7926;43.576;1.458;2022-08-19T06:49:08;0.30;;;0.30;;
15651;SDS011;7926;43.576;1.458;2022-08-19T06:51:36;0.30;;;0.30;;
15651;SDS011;7926;43.576;1.458;2022-08-19T06:54:04;0.30;;;0.30;;
15651;SDS011;7926;43.576;1.458;2022-08-19T06:56:31;0.30;;;0.30;;
15651;SDS011;7926;43.576;1.458;2022-08-19T06:59:00;0.40;;;0.40;;
15651;SDS011;7926;43.576;1.458;2022-08-19T07:01:27;0.30;;;0.30;;
15651;SDS011;7926;43.576;1.458;2022-08-19T07:03:55;0.30;;;0.30;;
15651;SDS011;7926;43.576;1.458;2022-08-19T07:06:24;0.30;;;0.30;;
15651;SDS011;7926;43.576;1.458;2022-08-19T07:08:51;0.30;;;0.30;;
15651;SDS011;7926;43.576;1.458;2022-08-19T07:11:18;0.30;;;0.30;;
15651;SDS011;7926;43.576;1.458;2022-08-19T07:13:46;0.30;;;0.30;;
15651;SDS011;7926;43.576;1.458;2022-08-19T07:16:15;0.30;;;0.30;;
15651;SDS011;7926;43.576;1.458;2022-08-19T07:18:42;0.40;;;0.40;;
15651;SDS011;7926;43.576;1.458;2022-08-19T07:21:12;0.30;;;0.30;;
15651;SDS011;7926;43.576;1.458;2022-08-19T07:23:41;0.30;;;0.30;;
15651;SDS011;7926;43.576;1.458;2022-08-19T07:26:14;0.30;;;0.30;;
15651;SDS011;7926;43.576;1.458;2022-08-19T07:28:42;0.30;;;0.30;;
15651;SDS011;7926;43.576;1.458;2022-08-19T07:31:14;0.30;;;0.30;;
15651;SDS011;7926;43.576;1.458;2022-08-19T07:33:43;0.30;;;0.30;;
15651;SDS011;7926;43.576;1.458;2022-08-19T07:36:11;0.30;;;0.30;;
15651;SDS011;7926;43.576;1.458;2022-08-19T07:38:39;0.37;;;0.37;;
15651;SDS011;7926;43.576;1.458;2022-08-19T07:41:09;0.30;;;0.30;;
15651;SDS011;7926;43.576;1.458;2022-08-19T07:43:37;0.40;;;0.40;;
15651;SDS011;7926;43.576;1.458;2022-08-19T07:46:05;0.30;;;0.30;;
15651;SDS011;7926;43.576;1.458;2022-08-19T07:48:32;0.30;;;0.30;;
15651;SDS011;7926;43.576;1.458;2022-08-19T07:51:00;0.30;;;0.30;;
15651;SDS011;7926;43.576;1.458;2022-08-19T07:53:29;0.30;;;0.30;;
15651;SDS011;7926;43.576;1.458;2022-08-19T07:55:57;0.40;;;0.40;;
15651;SDS011;7926;43.576;1.458;2022-08-19T07:58:31;0.40;;;0.40;;
15651;SDS011;7926;43.576;1.458;2022-08-19T08:00:59;0.30;;;0.30;;
15651;SDS011;7926;43.576;1.458;2022-08-19T08:03:27;0.40;;;0.40;;
15651;SDS011;7926;43.576;1.458;2022-08-19T08:06:08;0.40;;;0.40;;
15651;SDS011;7926;43.576;1.458;2022-08-19T08:08:53;0.40;;;0.40;;
15651;SDS011;7926;43.576;1.458;2022-08-19T08:11:44;0.40;;;0.40;;
15651;SDS011;7926;43.576;1.458;2022-08-19T08:14:15;0.30;;;0.30;;
15651;SDS011;7926;43.576;1.458;2022-08-19T08:16:43;0.30;;;0.30;;
15651;SDS011;7926;43.576;1.458;2022-08-19T08:19:11;0.40;;;0.40;;
15651;SDS011;7926;43.576;1.458;2022-08-19T08:21:39;0.40;;;0.40;;
15651;SDS011;7926;43.576;1.458;2022-08-19T08:24:07;0.40;;;0.40;;
15651;SDS011;7926;43.576;1.458;2022-08-19T08:26:34;0.40;;;0.40;;
15651;SDS011;7926;43.576;1.458;2022-08-19T08:29:02;0.40;;;0.40;;
15651;SDS011;7926;43.576;1.458;2022-08-19T08:31:30;0.40;;;0.40;;
15651;SDS011;7926;43.576;1.458;2022-08-19T08:33:59;0.40;;;0.40;;
15651;SDS011;7926;43.576;1.458;2022-08-19T08:36:26;0.50;;;0.50;;
15651;SDS011;7926;43.576;1.458;2022-08-19T08:38:53;0.40;;;0.40;;
15651;SDS011;7926;43.576;1.458;2022-08-19T08:41:22;0.40;;;0.40;;
15651;SDS011;7926;43.576;1.458;2022-08-19T08:43:53;0.40;;;0.40;;
15651;SDS011;7926;43.576;1.458;2022-08-19T08:46:23;0.47;;;0.47;;
15651;SDS011;7926;43.576;1.458;2022-08-19T08:48:53;0.40;;;0.40;;
15651;SDS011;7926;43.576;1.458;2022-08-19T08:51:24;0.40;;;0.40;;
15651;SDS011;7926;43.576;1.458;2022-08-19T08:53:52;0.40;;;0.40;;
15651;SDS011;7926;43.576;1.458;2022-08-19T08:56:20;0.40;;;0.40;;
15651;SDS011;7926;43.576;1.458;2022-08-19T08:58:51;0.50;;;0.50;;
15651;SDS011;7926;43.576;1.458;2022-08-19T09:01:18;0.50;;;0.50;;
15651;SDS011;7926;43.576;1.458;2022-08-19T09:03:46;0.40;;;0.40;;
15651;SDS011;7926;43.576;1.458;2022-08-19T09:06:17;0.50;;;0.50;;
15651;SDS011;7926;43.576;1.458;2022-08-19T09:08:48;0.40;;;0.40;;
15651;SDS011;7926;43.576;1.458;2022-08-19T09:11:18;0.50;;;0.50;;
15651;SDS011;7926;43.576;1.458;2022-08-19T09:13:49;0.50;;;0.50;;
15651;SDS011;7926;43.576;1.458;2022-08-19T09:16:21;0.50;;;0.50;;
15651;SDS011;7926;43.576;1.458;2022-08-19T09:18:52;0.50;;;0.50;;
15651;SDS011;7926;43.576;1.458;2022-08-19T09:21:21;0.50;;;0.50;;
15651;SDS011;7926;43.576;1.458;2022-08-19T09:23:50;0.40;;;0.40;;
15651;SDS011;7926;43.576;1.458;2022-08-19T09:26:19;0.50;;;0.50;;
15651;SDS011;7926;43.576;1.458;2022-08-19T09:28:47;0.50;;;0.50;;
15651;SDS011;7926;43.576;1.458;2022-08-19T09:31:17;0.40;;;0.40;;
15651;SDS011;7926;43.576;1.458;2022-08-19T09:33:44;0.40;;;0.40;;
15651;SDS011;7926;43.576;1.458;2022-08-19T09:36:13;0.50;;;0.50;;
15651;SDS011;7926;43.576;1.458;2022-08-19T09:38:42;0.50;;;0.50;;
15651;SDS011;7926;43.576;1.458;2022-08-19T09:41:10;0.50;;;0.50;;
15651;SDS011;7926;43.576;1.458;2022-08-19T09:43:38;0.50;;;0.50;;
15651;SDS011;7926;43.576;1.458;2022-08-19T09:46:06;0.50;;;0.50;;
15651;SDS011;7926;43.576;1.458;2022-08-19T09:48:34;0.60;;;0.60;;
15651;SDS011;7926;43.576;1.458;2022-08-19T09:51:02;0.50;;;0.50;;
15651;SDS011;7926;43.576;1.458;2022-08-19T09:53:30;0.70;;;0.70;;
15651;SDS011;7926;43.576;1.458;2022-08-19T09:55:58;0.57;;;0.57;;
15651;SDS011;7926;43.576;1.458;2022-08-19T09:58:26;0.60;;;0.60;;
15651;SDS011;7926;43.576;1.458;2022-08-19T10:00:55;0.53;;;0.53;;
15651;SDS011;7926;43.576;1.458;2022-08-19T10:03:23;0.60;;;0.60;;
15651;SDS011;7926;43.576;1.458;2022-08-19T10:05:50;0.50;;;0.50;;
15651;SDS011;7926;43.576;1.458;2022-08-19T10:08:19;0.50;;;0.50;;
15651;SDS011;7926;43.576;1.458;2022-08-19T10:10:47;0.60;;;0.60;;
15651;SDS011;7926;43.576;1.458;2022-08-19T10:13:18;0.50;;;0.50;;
15651;SDS011;7926;43.576;1.458;2022-08-19T10:15:46;0.60;;;0.60;;
15651;SDS011;7926;43.576;1.458;2022-08-19T10:18:15;0.60;;;0.60;;
15651;SDS011;7926;43.576;1.458;2022-08-19T10:20:43;0.50;;;0.50;;
15651;SDS011;7926;43.576;1.458;2022-08-19T10:23:11;0.50;;;0.50;;
15651;SDS011;7926;43.576;1.458;2022-08-19T10:25:40;0.60;;;0.60;;
15651;SDS011;7926;43.576;1.458;2022-08-19T10:28:07;0.50;;;0.50;;
15651;SDS011;7926;43.576;1.458;2022-08-19T10:30:38;0.50;;;0.50;;
15651;SDS011;7926;43.576;1.458;2022-08-19T10:33:06;0.50;;;0.50;;
15651;SDS011;7926;43.576;1.458;2022-08-19T10:35:33;0.50;;;0.50;;
15651;SDS011;7926;43.576;1.458;2022-08-19T10:38:01;0.50;;;0.50;;
15651;SDS011;7926;43.576;1.458;2022-08-19T10:40:29;0.50;;;0.50;;
15651;SDS011;7926;43.576;1.458;2022-08-19T10:42:56;0.50;;;0.50;;
15651;SDS011;7926;43.576;1.458;2022-08-19T10:45:24;0.50;;;0.50;;
15651;SDS011;7926;43.576;1.458;2022-08-19T10:47:53;0.50;;;0.50;;
15651;SDS011;7926;43.576;1.458;2022-08-19T10:50:20;0.50;;;0.50;;
15651;SDS011;7926;43.576;1.458;2022-08-19T10:53:05;0.50;;;0.50;;
15651;SDS011;7926;43.576;1.458;2022-08-19T10:55:34;0.60;;;0.60;;
15651;SDS011;7926;43.576;1.458;2022-08-19T10:58:19;0.50;;;0.50;;
15651;SDS011;7926;43.576;1.458;2022-08-19T11:00:51;0.50;;;0.50;;
15651;SDS011;7926;43.576;1.458;2022-08-19T11:03:21;0.60;;;0.60;;
15651;SDS011;7926;43.576;1.458;2022-08-19T11:05:56;0.60;;;0.60;;
15651;SDS011;7926;43.576;1.458;2022-08-19T11:08:23;0.60;;;0.60;;
15651;SDS011;7926;43.576;1.458;2022-08-19T11:10:52;0.60;;;0.60;;
15651;SDS011;7926;43.576;1.458;2022-08-19T11:13:25;0.60;;;0.60;;
15651;SDS011;7926;43.576;1.458;2022-08-19T11:15:57;0.80;;;0.80;;
15651;SDS011;7926;43.576;1.458;2022-08-19T11:18:26;0.60;;;0.60;;
15651;SDS011;7926;43.576;1.458;2022-08-19T11:20:53;0.60;;;0.60;;
15651;SDS011;7926;43.576;1.458;2022-08-19T11:23:20;0.60;;;0.60;;
15651;SDS011;7926;43.576;1.458;2022-08-19T11:25:47;0.60;;;0.60;;
15651;SDS011;7926;43.576;1.458;2022-08-19T11:28:16;0.52;;;0.52;;
15651;SDS011;7926;43.576;1.458;2022-08-19T11:30:43;0.60;;;0.60;;
15651;SDS011;7926;43.576;1.458;2022-08-19T11:33:11;0.60;;;0.60;;
15651;SDS011;7926;43.576;1.458;2022-08-19T11:35:40;0.50;;;0.50;;
15651;SDS011;7926;43.576;1.458;2022-08-19T11:38:07;0.50;;;0.50;;
15651;SDS011;7926;43.576;1.458;2022-08-19T11:40:34;0.52;;;0.52;;
15651;SDS011;7926;43.576;1.458;2022-08-19T11:43:02;0.50;;;0.50;;
15651;SDS011;7926;43.576;1.458;2022-08-19T11:45:29;0.60;;;0.60;;
15651;SDS011;7926;43.576;1.458;2022-08-19T11:47:57;0.60;;;0.60;;
15651;SDS011;7926;43.576;1.458;2022-08-19T11:50:24;0.60;;;0.60;;
15651;SDS011;7926;43.576;1.458;2022-08-19T11:52:54;0.60;;;0.60;;
15651;SDS011;7926;43.576;1.458;2022-08-19T11:55:23;0.60;;;0.60;;
15651;SDS011;7926;43.576;1.458;2022-08-19T11:57:53;0.60;;;0.60;;
15651;SDS011;7926;43.576;1.458;2022-08-19T13:19:38;0.70;;;0.70;;
15651;SDS011;7926;43.576;1.458;2022-08-19T13:22:52;0.70;;;0.70;;
15651;SDS011;7926;43.576;1.458;2022-08-19T13:25:31;0.73;;;0.73;;
15651;SDS011;7926;43.576;1.458;2022-08-19T13:28:02;0.80;;;0.80;;
15651;SDS011;7926;43.576;1.458;2022-08-19T13:30:31;0.80;;;0.80;;
15651;SDS011;7926;43.576;1.458;2022-08-19T13:33:16;0.80;;;0.80;;
15651;SDS011;7926;43.576;1.458;2022-08-19T13:35:48;0.70;;;0.70;;
15651;SDS011;7926;43.576;1.458;2022-08-19T13:38:16;0.80;;;0.80;;
15651;SDS011;7926;43.576;1.458;2022-08-19T13:40:46;0.82;;;0.82;;
15651;SDS011;7926;43.576;1.458;2022-08-19T13:43:14;0.85;;;0.85;;
15651;SDS011;7926;43.576;1.458;2022-08-19T13:48:32;0.70;;;0.70;;
15651;SDS011;7926;43.576;1.458;2022-08-19T13:51:30;0.80;;;0.80;;
15651;SDS011;7926;43.576;1.458;2022-08-19T13:56:50;0.88;;;0.88;;
15651;SDS011;7926;43.576;1.458;2022-08-19T13:59:40;0.80;;;0.80;;
15651;SDS011;7926;43.576;1.458;2022-08-19T14:02:13;0.70;;;0.70;;
15651;SDS011;7926;43.576;1.458;2022-08-19T14:38:22;0.70;;;0.70;;
15651;SDS011;7926;43.576;1.458;2022-08-19T14:40:50;0.80;;;0.80;;
15651;SDS011;7926;43.576;1.458;2022-08-19T14:43:18;0.80;;;0.80;;
15651;SDS011;7926;43.576;1.458;2022-08-19T14:45:46;0.80;;;0.80;;
15651;SDS011;7926;43.576;1.458;2022-08-19T14:48:13;0.80;;;0.80;;
15651;SDS011;7926;43.576;1.458;2022-08-19T14:50:40;0.80;;;0.80;;
15651;SDS011;7926;43.576;1.458;2022-08-19T14:53:08;0.80;;;0.80;;
15651;SDS011;7926;43.576;1.458;2022-08-19T14:55:39;0.80;;;0.80;;
15651;SDS011;7926;43.576;1.458;2022-08-19T14:58:07;0.80;;;0.80;;
15651;SDS011;7926;43.576;1.458;2022-08-19T15:00:34;0.90;;;0.90;;
15651;SDS011;7926;43.576;1.458;2022-08-19T15:03:01;0.80;;;0.80;;
15651;SDS011;7926;43.576;1.458;2022-08-19T15:05:29;0.80;;;0.80;;
15651;SDS011;7926;43.576;1.458;2022-08-19T15:07:57;0.80;;;0.80;;
15651;SDS011;7926;43.576;1.458;2022-08-19T15:10:24;0.73;;;0.73;;
15651;SDS011;7926;43.576;1.458;2022-08-19T15:12:53;0.80;;;0.80;;
15651;SDS011;7926;43.576;1.458;2022-08-19T15:15:20;0.80;;;0.80;;
15651;SDS011;7926;43.576;1.458;2022-08-19T15:17:48;0.70;;;0.70;;
15651;SDS011;7926;43.576;1.458;2022-08-19T15:20:16;0.80;;;0.80;;
15651;SDS011;7926;43.576;1.458;2022-08-19T15:22:44;0.80;;;0.80;;
15651;SDS011;7926;43.576;1.458;2022-08-19T15:25:13;0.75;;;0.75;;
15651;SDS011;7926;43.576;1.458;2022-08-19T15:27:41;0.80;;;0.80;;
15651;SDS011;7926;43.576;1.458;2022-08-19T15:30:10;0.80;;;0.80;;
15651;SDS011;7926;43.576;1.458;2022-08-19T15:32:38;0.75;;;0.75;;
15651;SDS011;7926;43.576;1.458;2022-08-19T15:35:06;0.70;;;0.70;;
15651;SDS011;7926;43.576;1.458;2022-08-19T15:37:33;0.80;;;0.80;;
15651;SDS011;7926;43.576;1.458;2022-08-19T15:40:01;0.80;;;0.80;;
15651;SDS011;7926;43.576;1.458;2022-08-19T15:42:28;0.70;;;0.70;;
15651;SDS011;7926;43.576;1.458;2022-08-19T15:44:56;0.75;;;0.75;;
15651;SDS011;7926;43.576;1.458;2022-08-19T15:47:24;0.80;;;0.80;;
15651;SDS011;7926;43.576;1.458;2022-08-19T15:49:52;0.70;;;0.70;;
15651;SDS011;7926;43.576;1.458;2022-08-19T15:52:19;0.70;;;0.70;;
15651;SDS011;7926;43.576;1.458;2022-08-19T15:54:46;0.73;;;0.73;;
15651;SDS011;7926;43.576;1.458;2022-08-19T15:57:14;0.70;;;0.70;;
15651;SDS011;7926;43.576;1.458;2022-08-19T15:59:58;0.70;;;0.70;;
15651;SDS011;7926;43.576;1.458;2022-08-19T16:02:44;0.70;;;0.70;;
15651;SDS011;7926;43.576;1.458;2022-08-19T16:05:29;0.70;;;0.70;;
15651;SDS011;7926;43.576;1.458;2022-08-19T16:08:14;0.70;;;0.70;;
15651;SDS011;7926;43.576;1.458;2022-08-19T16:10:41;0.75;;;0.75;;
15651;SDS011;7926;43.576;1.458;2022-08-19T16:13:08;0.80;;;0.80;;
15651;SDS011;7926;43.576;1.458;2022-08-19T16:15:36;0.77;;;0.77;;
15651;SDS011;7926;43.576;1.458;2022-08-19T16:18:09;0.90;;;0.90;;
15651;SDS011;7926;43.576;1.458;2022-08-19T16:20:36;0.90;;;0.90;;
15651;SDS011;7926;43.576;1.458;2022-08-19T16:23:04;0.80;;;0.80;;
15651;SDS011;7926;43.576;1.458;2022-08-19T16:25:31;0.80;;;0.80;;
15651;SDS011;7926;43.576;1.458;2022-08-19T16:27:58;0.75;;;0.75;;
15651;SDS011;7926;43.576;1.458;2022-08-19T16:30:26;0.70;;;0.70;;
15651;SDS011;7926;43.576;1.458;2022-08-19T16:32:53;0.73;;;0.73;;
15651;SDS011;7926;43.576;1.458;2022-08-19T16:35:22;0.80;;;0.80;;
15651;SDS011;7926;43.576;1.458;2022-08-19T16:37:49;0.80;;;0.80;;
15651;SDS011;7926;43.576;1.458;2022-08-19T16:40:17;0.70;;;0.70;;
15651;SDS011;7926;43.576;1.458;2022-08-19T16:42:44;0.77;;;0.77;;
15651;SDS011;7926;43.576;1.458;2022-08-19T16:45:12;0.80;;;0.80;;
15651;SDS011;7926;43.576;1.458;2022-08-19T16:47:39;0.80;;;0.80;;
15651;SDS011;7926;43.576;1.458;2022-08-19T16:50:06;0.80;;;0.80;;
15651;SDS011;7926;43.576;1.458;2022-08-19T16:52:35;0.70;;;0.70;;
15651;SDS011;7926;43.576;1.458;2022-08-19T16:55:03;0.80;;;0.80;;
15651;SDS011;7926;43.576;1.458;2022-08-19T16:57:32;0.70;;;0.70;;
15651;SDS011;7926;43.576;1.458;2022-08-19T16:59:59;0.77;;;0.77;;
15651;SDS011;7926;43.576;1.458;2022-08-19T17:02:31;0.80;;;0.80;;
15651;SDS011;7926;43.576;1.458;2022-08-19T17:05:01;0.70;;;0.70;;
15651;SDS011;7926;43.576;1.458;2022-08-19T17:07:28;0.80;;;0.80;;
15651;SDS011;7926;43.576;1.458;2022-08-19T17:09:57;0.80;;;0.80;;
15651;SDS011;7926;43.576;1.458;2022-08-19T17:12:25;0.90;;;0.90;;